Time;durP1;ratioP1;P1;durP2;ratioP2;P2;SDS_P1;SDS_P2;PMS_P1;PMS_P2;Temp;Humidity;BMP_temperature;BMP_pressure;BME280_temperature;BME280_humidity;BME280_pressure;Samples;Min_cycle;Max_cycle;Signal;HPM_P1;HPM_P2
2023/08/02 00:02:02;;;;;;;10.73;6.27;;;17.80;99.90;;;;;;5013868;28;20481;-64
2023/08/02 00:04:30;;;;;;;8.10;5.03;;;17.80;99.90;;;;;;5013633;28;20877;-63
2023/08/02 00:06:57;;;;;;;11.73;7.07;;;17.70;99.90;;;;;;5001667;28;20992;-64
2023/08/02 00:09:24;;;;;;;6.93;4.60;;;17.70;99.90;;;;;;5015151;28;20655;-63
2023/08/02 00:11:54;;;;;;;11.20;9.53;;;17.60;99.90;;;;;;5013013;28;20485;-64
2023/08/02 00:14:22;;;;;;;6.13;4.10;;;17.60;99.90;;;;;;5013765;28;20904;-62
2023/08/02 00:16:48;;;;;;;8.50;7.00;;;17.60;99.90;;;;;;5012957;28;20480;-64
2023/08/02 00:19:15;;;;;;;7.20;5.10;;;17.60;99.90;;;;;;5014103;28;20483;-65
2023/08/02 00:21:42;;;;;;;7.90;6.33;;;17.60;99.90;;;;;;5012034;28;20876;-62
2023/08/02 00:24:09;;;;;;;10.57;6.83;;;17.50;99.90;;;;;;5011125;28;20486;-64
2023/08/02 00:26:36;;;;;;;6.80;5.30;;;17.60;99.90;;;;;;5007583;28;20483;-63
2023/08/02 00:29:05;;;;;;;14.43;6.40;;;17.60;99.90;;;;;;5022586;28;20995;-64
2023/08/02 00:31:31;;;;;;;6.40;4.63;;;17.60;99.90;;;;;;5018039;28;20486;-64
2023/08/02 00:33:58;;;;;;;9.03;7.80;;;17.50;99.90;;;;;;5016078;28;20472;-64
2023/08/02 00:36:26;;;;;;;7.00;5.10;;;17.50;99.90;;;;;;5015704;28;20487;-64
2023/08/02 00:38:53;;;;;;;12.40;7.00;;;17.50;99.90;;;;;;5015962;28;20476;-65
2023/08/02 00:41:20;;;;;;;6.70;5.20;;;17.40;99.90;;;;;;5016876;28;20569;-63
2023/08/02 00:43:48;;;;;;;7.90;5.90;;;17.50;99.90;;;;;;5015860;28;20565;-65
2023/08/02 00:46:19;;;;;;;5.20;4.70;;;17.50;99.90;;;;;;5013915;28;20481;-64
2023/08/02 00:48:47;;;;;;;6.87;6.17;;;17.50;99.90;;;;;;5014133;28;21078;-64
2023/08/02 00:51:15;;;;;;;8.80;6.73;;;17.50;99.90;;;;;;5024877;28;20480;-63
2023/08/02 00:53:42;;;;;;;5.60;4.57;;;17.50;99.90;;;;;;5015117;28;21381;-63
2023/08/02 00:56:10;;;;;;;7.10;5.73;;;17.40;99.90;;;;;;5016069;28;20563;-64
2023/08/02 00:58:37;;;;;;;8.90;5.73;;;17.50;99.90;;;;;;5013992;28;20567;-64
2023/08/02 01:01:07;;;;;;;6.70;5.47;;;17.40;99.90;;;;;;5015961;28;20487;-63
2023/08/02 01:03:36;;;;;;;8.37;4.93;;;17.40;99.90;;;;;;5013900;28;20460;-63
2023/08/02 01:06:20;;;;;;;6.30;5.43;;;17.40;99.90;;;;;;5004906;28;21069;-63
2023/08/02 01:08:50;;;;;;;12.43;7.70;;;17.40;99.90;;;;;;5014499;28;20472;-61
2023/08/02 01:11:25;;;;;;;6.33;5.70;;;17.50;99.90;;;;;;5014911;28;20488;-64
2023/08/02 01:13:54;;;;;;;10.90;7.50;;;17.40;99.90;;;;;;5015775;28;20476;-64
2023/08/02 01:16:23;;;;;;;9.43;5.70;;;17.40;99.90;;;;;;5013486;28;21025;-64
2023/08/02 01:18:51;;;;;;;11.30;7.43;;;17.40;99.90;;;;;;5011519;28;20734;-64
2023/08/02 01:21:20;;;;;;;8.10;5.00;;;17.40;99.90;;;;;;5016548;28;20491;-64
2023/08/02 01:23:47;;;;;;;12.80;6.20;;;17.50;99.90;;;;;;5011852;28;20708;-64
2023/08/02 01:26:15;;;;;;;9.97;6.07;;;17.30;99.90;;;;;;5018345;28;20510;-63
2023/08/02 01:28:45;;;;;;;6.27;5.20;;;17.40;99.90;;;;;;5010226;28;20481;-63
2023/08/02 01:31:16;;;;;;;8.07;5.80;;;17.40;99.90;;;;;;5026446;28;20639;-64
2023/08/02 01:33:47;;;;;;;8.43;5.53;;;17.50;99.90;;;;;;5015272;28;20488;-63
2023/08/02 01:36:14;;;;;;;7.57;5.53;;;17.40;99.90;;;;;;5010817;28;20484;-63
2023/08/02 01:38:42;;;;;;;8.70;5.67;;;17.40;99.90;;;;;;5014227;28;20833;-62
2023/08/02 01:41:09;;;;;;;10.13;6.43;;;17.40;99.90;;;;;;5019546;28;20988;-65
2023/08/02 01:43:36;;;;;;;9.07;6.20;;;17.40;99.90;;;;;;5016968;28;20476;-65
2023/08/02 01:46:04;;;;;;;6.93;4.53;;;17.60;99.90;;;;;;5022612;28;20481;-64
2023/08/02 01:48:32;;;;;;;8.47;5.70;;;17.10;99.90;;;;;;5022564;28;20500;-64
2023/08/02 01:50:59;;;;;;;7.97;6.50;;;17.50;99.90;;;;;;5015162;28;20491;-64
2023/08/02 01:53:26;;;;;;;8.60;5.00;;;17.50;99.90;;;;;;5021091;28;21262;-63
2023/08/02 01:55:54;;;;;;;7.43;6.37;;;17.40;99.90;;;;;;5020479;28;20481;-64
2023/08/02 01:58:22;;;;;;;7.97;5.47;;;17.40;99.90;;;;;;5020208;28;20484;-64
2023/08/02 02:00:49;;;;;;;8.67;6.37;;;17.40;99.90;;;;;;5023095;28;20956;-64
2023/08/02 02:03:16;;;;;;;8.20;5.80;;;17.50;99.90;;;;;;5002756;28;20514;-64
2023/08/02 02:05:51;;;;;;;9.10;5.07;;;17.40;99.90;;;;;;5030053;28;20558;-64
2023/08/02 02:08:18;;;;;;;10.73;6.53;;;17.40;99.90;;;;;;5018246;28;20480;-64
2023/08/02 02:10:49;;;;;;;11.87;6.20;;;17.30;99.90;;;;;;5020210;28;20546;-64
2023/08/02 02:13:17;;;;;;;5.27;4.40;;;17.40;99.90;;;;;;5015202;28;20477;-64
2023/08/02 02:15:44;;;;;;;15.33;5.40;;;17.50;99.90;;;;;;5018758;28;20555;-64
2023/08/02 02:18:11;;;;;;;11.20;6.03;;;17.50;99.90;;;;;;5013361;28;20492;-64
2023/08/02 02:20:38;;;;;;;8.07;4.60;;;17.60;99.90;;;;;;5034182;28;20482;-64
2023/08/02 02:23:04;;;;;;;8.73;5.57;;;17.60;99.90;;;;;;5019391;28;20672;-65
2023/08/02 02:25:31;;;;;;;7.67;5.77;;;17.60;99.90;;;;;;5022438;28;20568;-64
2023/08/02 02:27:58;;;;;;;12.40;7.73;;;17.50;99.90;;;;;;5012918;28;20575;-64
2023/08/02 02:30:27;;;;;;;7.83;4.80;;;17.50;99.90;;;;;;5026493;28;20477;-64
2023/08/02 02:32:54;;;;;;;10.70;7.00;;;17.50;99.90;;;;;;5015273;28;20491;-64
2023/08/02 02:35:21;;;;;;;7.37;6.07;;;17.40;99.90;;;;;;5012816;28;20482;-60
2023/08/02 02:37:48;;;;;;;13.63;9.03;;;17.50;99.90;;;;;;5023231;28;20489;-62
2023/08/02 02:40:15;;;;;;;7.80;5.23;;;17.50;99.90;;;;;;5025931;28;20568;-63
2023/08/02 02:42:42;;;;;;;6.87;5.30;;;17.60;99.90;;;;;;5024241;28;20479;-64
2023/08/02 02:45:10;;;;;;;12.93;6.77;;;17.60;99.90;;;;;;5016654;28;20475;-63
2023/08/02 02:47:38;;;;;;;18.23;5.30;;;17.50;99.90;;;;;;5024904;28;20488;-63
2023/08/02 02:50:06;;;;;;;8.33;5.80;;;17.60;99.90;;;;;;5020883;28;20488;-65
2023/08/02 02:52:33;;;;;;;10.07;6.43;;;17.60;99.90;;;;;;5021342;28;20481;-64
2023/08/02 02:55:00;;;;;;;10.87;6.50;;;17.60;99.90;;;;;;5021742;28;20476;-64
2023/08/02 02:57:27;;;;;;;7.30;5.07;;;17.70;99.90;;;;;;5029647;28;20989;-64
2023/08/02 02:59:54;;;;;;;8.27;6.40;;;17.60;99.90;;;;;;5019301;28;20495;-64
2023/08/02 03:02:20;;;;;;;10.30;5.57;;;17.60;99.90;;;;;;5019403;28;20505;-63
2023/08/02 03:04:49;;;;;;;12.77;8.37;;;17.50;99.90;;;;;;5020190;28;20535;-65
2023/08/02 03:07:15;;;;;;;7.33;5.43;;;17.50;99.90;;;;;;5016189;28;20977;-64
2023/08/02 03:09:42;;;;;;;10.17;6.63;;;17.40;99.90;;;;;;5026004;28;20562;-65
2023/08/02 03:12:09;;;;;;;8.20;5.50;;;17.40;99.90;;;;;;5021251;28;20480;-65
2023/08/02 03:14:37;;;;;;;9.67;6.50;;;17.40;99.90;;;;;;5018647;28;20481;-62
2023/08/02 03:17:05;;;;;;;8.57;6.20;;;17.30;99.90;;;;;;5019316;28;21089;-65
2023/08/02 03:19:31;;;;;;;7.03;5.27;;;17.20;99.90;;;;;;5017938;28;20568;-63
2023/08/02 03:22:00;;;;;;;9.33;7.60;;;17.20;99.90;;;;;;5016182;28;20986;-64
2023/08/02 03:24:27;;;;;;;15.70;7.40;;;17.10;99.90;;;;;;5022358;28;20480;-65
2023/08/02 03:26:53;;;;;;;11.00;8.57;;;17.10;99.90;;;;;;5017658;28;20474;-64
2023/08/02 03:29:20;;;;;;;10.17;6.53;;;17.20;99.90;;;;;;5018737;28;20945;-65
2023/08/02 03:31:48;;;;;;;11.20;8.77;;;17.00;99.90;;;;;;5020994;28;20826;-66
2023/08/02 03:34:15;;;;;;;11.13;7.07;;;17.10;99.90;;;;;;5021213;28;20902;-65
2023/08/02 03:36:43;;;;;;;7.67;5.80;;;17.10;99.90;;;;;;5018542;28;20499;-66
2023/08/02 03:39:11;;;;;;;9.07;6.27;;;16.90;99.90;;;;;;5022942;28;20480;-67
2023/08/02 03:41:38;;;;;;;14.60;7.63;;;16.80;99.90;;;;;;5020026;28;20502;-66
2023/08/02 03:44:05;;;;;;;10.63;7.40;;;16.80;99.90;;;;;;5024886;28;20496;-66
2023/08/02 03:46:32;;;;;;;17.07;5.97;;;16.90;99.90;;;;;;5020482;28;21182;-65
2023/08/02 03:48:59;;;;;;;10.40;7.40;;;16.90;99.90;;;;;;5017961;28;20844;-66
2023/08/02 03:51:27;;;;;;;11.67;7.50;;;16.90;99.90;;;;;;5006005;28;20889;-64
2023/08/02 03:53:54;;;;;;;13.03;7.40;;;17.00;99.90;;;;;;5012272;28;20491;-63
2023/08/02 03:56:22;;;;;;;9.40;6.40;;;16.90;99.90;;;;;;5014615;28;20485;-65
2023/08/02 03:58:49;;;;;;;14.30;8.83;;;16.90;99.90;;;;;;5018581;28;20526;-64
2023/08/02 04:01:16;;;;;;;9.60;6.53;;;16.90;99.90;;;;;;5022319;28;20490;-63
2023/08/02 04:03:43;;;;;;;11.57;6.77;;;16.90;99.90;;;;;;5018855;28;20776;-63
2023/08/02 04:06:09;;;;;;;9.10;7.07;;;16.90;99.90;;;;;;5014848;28;20578;-64
2023/08/02 04:08:36;;;;;;;12.63;5.80;;;16.90;99.90;;;;;;5017226;28;20989;-64
2023/08/02 04:11:04;;;;;;;8.90;6.97;;;17.00;99.90;;;;;;5018417;28;20476;-64
2023/08/02 04:13:33;;;;;;;8.40;6.37;;;17.00;99.90;;;;;;5023593;28;20486;-63
2023/08/02 04:16:00;;;;;;;9.67;6.87;;;16.90;99.90;;;;;;5015799;28;20493;-65
2023/08/02 04:18:28;;;;;;;10.13;6.07;;;16.90;99.90;;;;;;5024901;28;20482;-65
2023/08/02 04:20:55;;;;;;;11.50;8.40;;;16.90;99.90;;;;;;5011356;28;21029;-64
2023/08/02 04:23:22;;;;;;;10.17;7.03;;;16.90;99.90;;;;;;5017427;28;20560;-67
2023/08/02 04:25:49;;;;;;;13.17;8.73;;;16.90;99.90;;;;;;5014701;28;20483;-64
2023/08/02 04:28:16;;;;;;;8.73;7.50;;;16.90;99.90;;;;;;5022380;28;20574;-63
2023/08/02 04:30:50;;;;;;;9.80;6.70;;;16.90;99.90;;;;;;5020815;28;20479;-65
2023/08/02 04:33:17;;;;;;;17.33;8.00;;;17.00;99.90;;;;;;5019162;28;20496;-65
2023/08/02 04:35:44;;;;;;;14.90;11.60;;;16.90;99.90;;;;;;5012751;28;21128;-65
2023/08/02 04:38:11;;;;;;;9.50;7.03;;;17.00;99.90;;;;;;5010783;28;20564;-64
2023/08/02 04:40:38;;;;;;;9.30;6.27;;;17.00;99.90;;;;;;5023107;28;20972;-65
2023/08/02 04:43:05;;;;;;;10.27;7.90;;;17.00;99.90;;;;;;5019259;28;20900;-65
2023/08/02 04:45:32;;;;;;;7.30;6.60;;;16.90;99.90;;;;;;5014584;28;20880;-62
2023/08/02 04:48:00;;;;;;;14.10;9.93;;;16.90;99.90;;;;;;5009668;28;20981;-64
2023/08/02 04:50:27;;;;;;;7.00;5.60;;;16.90;99.90;;;;;;5030101;28;20571;-62
2023/08/02 04:52:54;;;;;;;11.13;9.23;;;16.90;99.90;;;;;;5009849;28;20490;-66
2023/08/02 04:55:21;;;;;;;11.50;7.20;;;17.00;99.90;;;;;;5020398;28;20486;-67
2023/08/02 04:57:49;;;;;;;23.07;8.30;;;17.00;99.90;;;;;;5021078;28;20832;-66
2023/08/02 05:00:17;;;;;;;6.67;5.70;;;17.00;99.90;;;;;;5014218;28;20883;-65
2023/08/02 05:02:43;;;;;;;9.43;6.70;;;17.00;99.90;;;;;;5018120;28;20480;-64
2023/08/02 05:05:12;;;;;;;7.90;6.47;;;17.00;99.90;;;;;;5019630;28;20559;-66
2023/08/02 05:07:40;;;;;;;7.90;6.50;;;17.00;99.90;;;;;;5018800;28;20480;-65
2023/08/02 05:10:08;;;;;;;8.07;6.67;;;17.00;99.90;;;;;;5014769;28;20565;-62
2023/08/02 05:12:40;;;;;;;7.50;5.47;;;17.00;99.90;;;;;;5004266;28;21095;-65
2023/08/02 05:15:07;;;;;;;8.23;7.40;;;17.00;99.90;;;;;;5019060;28;20484;-61
2023/08/02 05:17:34;;;;;;;6.17;5.17;;;17.00;99.90;;;;;;5020087;28;20548;-63
2023/08/02 05:20:01;;;;;;;8.83;6.80;;;17.00;99.90;;;;;;5018922;28;20570;-64
2023/08/02 05:22:31;;;;;;;7.27;5.57;;;17.10;99.90;;;;;;5026269;28;20558;-65
2023/08/02 05:24:58;;;;;;;11.60;9.33;;;17.10;99.90;;;;;;5020887;28;21118;-64
2023/08/02 05:27:25;;;;;;;9.23;6.00;;;17.00;99.90;;;;;;5026513;28;20486;-65
2023/08/02 05:29:53;;;;;;;8.70;7.37;;;17.10;99.90;;;;;;5020498;28;20486;-67
2023/08/02 05:32:19;;;;;;;6.87;5.93;;;17.10;99.90;;;;;;5025110;28;20574;-67
2023/08/02 05:34:46;;;;;;;8.80;7.43;;;17.10;99.90;;;;;;5017978;28;20863;-64
2023/08/02 05:37:13;;;;;;;7.27;5.33;;;17.10;99.90;;;;;;5023322;28;20467;-68
2023/08/02 05:39:41;;;;;;;10.10;5.60;;;17.20;99.90;;;;;;5023939;28;20480;-66
2023/08/02 05:42:08;;;;;;;6.10;5.17;;;17.20;99.90;;;;;;5032753;28;20617;-67
2023/08/02 05:44:36;;;;;;;6.63;5.83;;;17.20;99.90;;;;;;5022667;28;21333;-67
2023/08/02 05:47:03;;;;;;;8.47;5.43;;;17.30;99.90;;;;;;5022149;28;20853;-66
2023/08/02 05:49:30;;;;;;;6.50;5.17;;;17.30;99.90;;;;;;5016231;28;20487;-65
2023/08/02 05:51:57;;;;;;;8.10;7.00;;;17.20;99.90;;;;;;5023924;28;20983;-67
2023/08/02 05:54:24;;;;;;;7.40;6.60;;;17.20;99.90;;;;;;5017149;28;20839;-66
2023/08/02 05:56:52;;;;;;;7.93;7.10;;;17.30;99.90;;;;;;5017779;28;20943;-66
2023/08/02 05:59:19;;;;;;;4.87;3.90;;;17.30;99.90;;;;;;5016683;28;20468;-64
2023/08/02 06:01:46;;;;;;;8.13;5.77;;;17.30;99.90;;;;;;5022022;28;20507;-66
2023/08/02 06:04:13;;;;;;;5.63;4.70;;;17.30;99.90;;;;;;5016258;28;20699;-66
2023/08/02 06:06:39;;;;;;;5.17;4.67;;;17.40;99.90;;;;;;5023044;28;20484;-63
2023/08/02 06:09:06;;;;;;;5.77;5.17;;;17.30;99.90;;;;;;5021657;28;20480;-63
2023/08/02 06:11:33;;;;;;;5.77;4.00;;;17.30;99.90;;;;;;5018299;28;20476;-66
2023/08/02 06:14:01;;;;;;;5.73;5.13;;;17.30;99.90;;;;;;5023557;28;20859;-67
2023/08/02 06:16:28;;;;;;;16.07;12.60;;;17.30;99.90;;;;;;5018319;28;20839;-67
2023/08/02 06:18:55;;;;;;;12.03;7.83;;;17.30;99.90;;;;;;5021639;28;20480;-66
2023/08/02 06:21:22;;;;;;;5.07;3.93;;;17.30;99.90;;;;;;5019092;28;20791;-66
2023/08/02 06:23:50;;;;;;;9.43;7.60;;;17.30;99.90;;;;;;5018650;28;20871;-66
2023/08/02 06:26:17;;;;;;;5.23;4.40;;;17.40;99.90;;;;;;5025755;28;20706;-64
2023/08/02 06:28:44;;;;;;;6.97;5.60;;;17.50;99.90;;;;;;5022655;28;20749;-65
2023/08/02 06:31:12;;;;;;;7.13;5.30;;;17.50;99.90;;;;;;5012812;28;20664;-66
2023/08/02 06:33:39;;;;;;;5.23;4.03;;;17.40;99.90;;;;;;5021176;28;20937;-66
2023/08/02 06:36:06;;;;;;;4.50;3.10;;;17.50;99.90;;;;;;5017750;28;21049;-64
2023/08/02 06:38:33;;;;;;;3.83;3.43;;;17.40;99.90;;;;;;5018186;28;21081;-62
2023/08/02 06:41:00;;;;;;;6.70;5.77;;;17.50;99.90;;;;;;5017910;28;20468;-65
2023/08/02 06:43:27;;;;;;;5.03;4.10;;;17.50;99.90;;;;;;5018117;28;20561;-62
2023/08/02 06:45:53;;;;;;;8.73;6.90;;;17.50;99.90;;;;;;5018790;28;20569;-64
2023/08/02 06:48:24;;;;;;;4.20;3.80;;;17.40;99.90;;;;;;5019962;28;20472;-64
2023/08/02 06:50:51;;;;;;;6.30;5.53;;;17.50;99.90;;;;;;5018114;28;20481;-65
2023/08/02 06:53:18;;;;;;;3.70;3.20;;;17.60;99.90;;;;;;5022230;28;20985;-65
2023/08/02 06:55:45;;;;;;;7.10;5.53;;;17.60;99.90;;;;;;5019104;28;20475;-65
2023/08/02 06:58:12;;;;;;;3.77;3.30;;;17.70;99.90;;;;;;5022482;28;20476;-65
2023/08/02 07:00:40;;;;;;;3.03;2.73;;;17.70;99.90;;;;;;5021506;28;20504;-64
2023/08/02 07:03:07;;;;;;;4.77;4.27;;;17.70;99.90;;;;;;5019517;28;20527;-62
2023/08/02 07:05:36;;;;;;;5.20;3.27;;;17.70;99.90;;;;;;5009158;28;20484;-65
2023/08/02 07:08:04;;;;;;;4.83;4.10;;;17.80;99.90;;;;;;5029887;28;21353;-63
2023/08/02 07:10:32;;;;;;;2.50;1.83;;;17.80;99.90;;;;;;5022672;28;21038;-64
2023/08/02 07:12:59;;;;;;;8.17;6.60;;;17.80;99.90;;;;;;5021181;28;20481;-65
2023/08/02 07:15:26;;;;;;;3.73;3.27;;;17.70;99.90;;;;;;5015313;28;21220;-64
2023/08/02 07:17:52;;;;;;;9.23;6.40;;;17.60;99.90;;;;;;5017305;28;20677;-62
2023/08/02 07:20:19;;;;;;;3.90;2.47;;;17.70;99.90;;;;;;5021379;28;20549;-63
2023/08/02 07:22:48;;;;;;;3.27;2.97;;;17.70;99.90;;;;;;5020115;28;20482;-60
2023/08/02 07:25:15;;;;;;;5.00;4.50;;;17.80;99.90;;;;;;5024859;28;20645;-61
2023/08/02 07:27:42;;;;;;;5.10;3.57;;;17.80;99.90;;;;;;5018451;28;20476;-63
2023/08/02 07:30:10;;;;;;;3.23;2.93;;;17.70;99.90;;;;;;5023666;28;20814;-62
2023/08/02 07:32:36;;;;;;;3.53;2.87;;;17.80;99.90;;;;;;5014642;28;20482;-63
2023/08/02 07:35:04;;;;;;;4.53;4.10;;;17.90;99.90;;;;;;5016248;28;20491;-62
2023/08/02 07:37:31;;;;;;;4.70;2.80;;;17.90;99.90;;;;;;5030566;28;20478;-67
2023/08/02 07:39:59;;;;;;;5.80;4.17;;;18.00;99.90;;;;;;5018074;28;20517;-63
2023/08/02 07:42:26;;;;;;;3.57;3.23;;;18.00;99.90;;;;;;5017064;28;20559;-60
2023/08/02 07:45:07;;;;;;;9.57;6.80;;;17.90;99.90;;;;;;5016939;28;20836;-63
2023/08/02 07:47:34;;;;;;;3.47;3.17;;;17.90;99.90;;;;;;5021892;28;20943;-64
2023/08/02 07:50:01;;;;;;;5.73;4.93;;;18.00;99.90;;;;;;5023278;28;20475;-64
2023/08/02 07:52:28;;;;;;;6.57;4.10;;;18.00;99.90;;;;;;5018678;28;20468;-65
2023/08/02 07:54:55;;;;;;;7.43;6.53;;;18.10;99.90;;;;;;5023822;28;20475;-64
2023/08/02 07:57:26;;;;;;;5.20;4.70;;;18.10;99.90;;;;;;5012731;28;20582;-63
2023/08/02 07:59:53;;;;;;;7.43;6.60;;;18.20;99.90;;;;;;5020984;28;20478;-64
2023/08/02 08:02:20;;;;;;;4.70;4.30;;;18.20;99.90;;;;;;5019653;28;20969;-67
2023/08/02 08:04:47;;;;;;;6.70;6.00;;;18.10;99.90;;;;;;5006255;28;20606;-63
2023/08/02 08:07:14;;;;;;;7.03;4.77;;;18.30;99.90;;;;;;5022686;28;20473;-63
2023/08/02 08:09:41;;;;;;;5.40;4.73;;;18.30;99.90;;;;;;5014779;28;20563;-63
2023/08/02 08:12:09;;;;;;;4.80;4.30;;;18.30;99.90;;;;;;5025154;28;20572;-60
2023/08/02 08:14:37;;;;;;;5.00;4.50;;;18.40;99.90;;;;;;5014687;28;20514;-64
2023/08/02 08:17:04;;;;;;;7.40;6.13;;;18.40;99.90;;;;;;5016122;28;20763;-63
2023/08/02 08:19:33;;;;;;;4.70;3.97;;;18.40;99.90;;;;;;5014971;28;20840;-60
2023/08/02 08:22:00;;;;;;;7.40;6.20;;;18.50;99.90;;;;;;5022522;28;20487;-66
2023/08/02 08:24:27;;;;;;;5.03;4.53;;;18.40;99.90;;;;;;5019274;28;20503;-66
2023/08/02 08:26:55;;;;;;;11.10;7.93;;;18.50;99.90;;;;;;5007016;28;20567;-62
2023/08/02 08:29:22;;;;;;;5.73;5.20;;;18.50;99.90;;;;;;5035892;28;21103;-61
2023/08/02 08:31:50;;;;;;;8.80;7.37;;;18.40;99.90;;;;;;5021205;28;20471;-61
2023/08/02 08:34:17;;;;;;;5.87;5.10;;;18.50;99.90;;;;;;5021727;28;21224;-62
2023/08/02 08:36:44;;;;;;;6.93;5.50;;;18.50;99.90;;;;;;5016621;28;20518;-61
2023/08/02 08:39:11;;;;;;;7.40;6.57;;;18.60;99.90;;;;;;5016635;28;20481;-63
2023/08/02 08:41:38;;;;;;;7.27;4.50;;;18.70;99.90;;;;;;5018925;28;20572;-64
2023/08/02 08:44:05;;;;;;;6.57;5.93;;;19.50;99.90;;;;;;5022154;28;20538;-65
2023/08/02 08:46:33;;;;;;;5.80;5.20;;;18.70;99.90;;;;;;5021363;28;20483;-64
2023/08/02 08:49:02;;;;;;;7.87;7.07;;;18.70;99.90;;;;;;5013682;28;21291;-63
2023/08/02 08:51:33;;;;;;;4.77;4.27;;;18.70;99.90;;;;;;5014513;28;20493;-62
2023/08/02 08:54:05;;;;;;;8.63;7.73;;;18.70;99.90;;;;;;5020502;28;20518;-62
2023/08/02 08:56:36;;;;;;;6.67;5.83;;;18.70;99.90;;;;;;5022856;28;20579;-64
2023/08/02 08:59:04;;;;;;;6.70;6.00;;;18.60;99.90;;;;;;5022947;28;20475;-63
2023/08/02 09:01:31;;;;;;;6.77;6.03;;;18.70;99.90;;;;;;5018596;28;20554;-62
2023/08/02 09:03:58;;;;;;;10.03;8.83;;;18.60;99.90;;;;;;5023381;28;20480;-63
2023/08/02 09:06:27;;;;;;;7.33;6.13;;;18.70;99.90;;;;;;5027129;28;20477;-62
2023/08/02 09:08:54;;;;;;;9.27;7.97;;;18.70;99.90;;;;;;5023212;28;20558;-64
2023/08/02 09:11:21;;;;;;;6.33;5.30;;;18.80;99.90;;;;;;5028865;28;20965;-62
2023/08/02 09:13:48;;;;;;;9.57;8.60;;;18.70;99.90;;;;;;5023194;28;20489;-65
2023/08/02 09:16:16;;;;;;;7.70;5.90;;;18.70;99.90;;;;;;5015739;28;20480;-63
2023/08/02 09:18:45;;;;;;;6.60;5.37;;;18.80;99.90;;;;;;5021077;28;20475;-64
2023/08/02 09:21:14;;;;;;;7.90;7.10;;;18.80;99.90;;;;;;5021153;28;20651;-65
2023/08/02 09:23:46;;;;;;;7.70;7.00;;;18.90;99.90;;;;;;5020515;28;20848;-65
2023/08/02 09:26:14;;;;;;;8.07;6.87;;;18.80;99.90;;;;;;5027103;28;21008;-65
2023/08/02 09:28:42;;;;;;;7.13;5.80;;;18.90;99.90;;;;;;5032178;28;20497;-64
2023/08/02 09:31:16;;;;;;;9.60;6.60;;;19.00;99.90;;;;;;5022677;28;20480;-64
2023/08/02 09:33:50;;;;;;;8.23;7.03;;;19.10;99.90;;;;;;5020790;28;20566;-65
2023/08/02 09:36:25;;;;;;;9.47;7.90;;;19.00;99.90;;;;;;5025550;28;20669;-65
2023/08/02 09:39:06;;;;;;;11.13;9.60;;;19.00;99.90;;;;;;5020454;28;20497;-64
2023/08/02 09:41:34;;;;;;;10.70;7.40;;;20.00;99.90;;;;;;5027095;28;20503;-64
2023/08/02 09:44:01;;;;;;;9.30;8.10;;;19.00;99.90;;;;;;5026325;28;20488;-65
2023/08/02 09:46:30;;;;;;;8.97;8.03;;;18.90;99.90;;;;;;5027607;28;20487;-63
2023/08/02 09:48:58;;;;;;;12.60;10.63;;;19.00;99.90;;;;;;5016228;28;20517;-62
2023/08/02 09:51:39;;;;;;;18.93;9.63;;;19.00;99.90;;;;;;5019606;28;20567;-64
2023/08/02 09:54:08;;;;;;;10.77;9.37;;;19.00;99.90;;;;;;4999852;28;20498;-63
2023/08/02 09:56:37;;;;;;;9.10;7.53;;;19.00;99.90;;;;;;5035336;28;20475;-64
2023/08/02 09:59:05;;;;;;;10.87;9.77;;;19.10;99.90;;;;;;5019400;28;20497;-66
2023/08/02 10:01:33;;;;;;;11.70;8.70;;;19.00;99.90;;;;;;5018449;28;20900;-63
2023/08/02 10:04:03;;;;;;;11.43;10.27;;;19.00;99.90;;;;;;5020377;28;20585;-62
2023/08/02 10:06:34;;;;;;;9.00;7.30;;;19.10;99.90;;;;;;5024680;28;20482;-67
2023/08/02 10:09:04;;;;;;;14.33;10.30;;;19.10;99.90;;;;;;5016449;28;20564;-63
2023/08/02 10:11:37;;;;;;;9.67;8.13;;;19.20;99.90;;;;;;5023570;28;20932;-61
2023/08/02 10:14:04;;;;;;;12.93;9.67;;;19.20;99.90;;;;;;5018863;28;20879;-63
2023/08/02 10:16:32;;;;;;;13.00;9.30;;;19.20;99.90;;;;;;5020769;28;20566;-64
2023/08/02 10:19:01;;;;;;;12.93;10.53;;;19.20;99.90;;;;;;5017480;28;20480;-67
2023/08/02 10:21:31;;;;;;;10.10;9.07;;;19.10;99.90;;;;;;5021771;28;20485;-62
2023/08/02 10:23:59;;;;;;;14.80;11.10;;;19.10;99.90;;;;;;5010088;28;20891;-67
2023/08/02 10:26:27;;;;;;;11.57;8.40;;;19.20;99.90;;;;;;5008039;28;21319;-62
2023/08/02 10:28:57;;;;;;;13.10;10.60;;;19.20;99.90;;;;;;5015060;28;20482;-63
2023/08/02 10:31:24;;;;;;;13.40;9.70;;;19.30;99.90;;;;;;5010648;28;20705;-61
2023/08/02 10:33:51;;;;;;;14.33;11.43;;;19.30;99.90;;;;;;5022477;28;20488;-63
2023/08/02 10:36:18;;;;;;;11.30;7.80;;;19.30;99.90;;;;;;5016322;28;20600;-65
2023/08/02 10:38:52;;;;;;;12.03;10.17;;;19.30;99.90;;;;;;5019096;28;20703;-66
2023/08/02 10:41:21;;;;;;;9.00;8.07;;;19.30;99.90;;;;;;5025668;28;20989;-65
2023/08/02 10:44:13;;;;;;;13.73;11.63;;;19.30;99.90;;;;;;5016477;28;20505;-64
2023/08/02 10:46:40;;;;;;;14.53;9.40;;;19.30;99.90;;;;;;5009033;28;20480;-64
2023/08/02 10:49:48;;;;;;;12.17;8.60;;;19.30;99.90;;;;;;5018250;28;20518;-64
2023/08/02 10:52:31;;;;;;;9.00;8.10;;;19.40;99.90;;;;;;5014854;28;20714;-64
2023/08/02 10:55:11;;;;;;;14.00;11.20;;;19.40;99.90;;;;;;5018745;28;20995;-64
2023/08/02 10:57:39;;;;;;;8.77;7.27;;;19.40;99.90;;;;;;5005869;28;20478;-64
2023/08/02 11:00:16;;;;;;;15.23;9.20;;;19.40;99.90;;;;;;5021026;28;20488;-64
2023/08/02 11:02:48;;;;;;;10.27;7.80;;;19.40;99.90;;;;;;5012801;28;20564;-63
2023/08/02 11:05:18;;;;;;;11.07;8.00;;;19.50;99.90;;;;;;5017917;28;20557;-63
2023/08/02 11:07:59;;;;;;;15.97;10.00;;;19.50;99.90;;;;;;5018352;28;21089;-64
2023/08/02 11:10:26;;;;;;;9.27;8.13;;;19.60;99.90;;;;;;5022847;28;20480;-63
2023/08/02 11:12:53;;;;;;;14.50;11.27;;;19.60;99.90;;;;;;5019771;28;20589;-62
2023/08/02 11:15:22;;;;;;;9.90;8.67;;;19.70;99.90;;;;;;5022552;28;20502;-63
2023/08/02 11:17:54;;;;;;;14.40;11.87;;;19.80;99.90;;;;;;5018049;28;20497;-63
2023/08/02 11:20:25;;;;;;;10.17;9.00;;;20.70;99.90;;;;;;5016782;28;20476;-64
2023/08/02 11:22:52;;;;;;;15.70;10.83;;;19.80;99.90;;;;;;5018571;28;20845;-63
2023/08/02 11:25:20;;;;;;;8.83;7.30;;;19.90;99.90;;;;;;5017676;28;20495;-64
2023/08/02 11:27:47;;;;;;;10.90;9.77;;;19.90;99.90;;;;;;5020114;28;20480;-61
2023/08/02 11:30:14;;;;;;;13.23;10.40;;;19.90;99.90;;;;;;5016991;28;20579;-62
2023/08/02 11:32:46;;;;;;;11.10;10.00;;;19.80;99.90;;;;;;5017822;28;20481;-66
2023/08/02 11:35:16;;;;;;;11.17;8.77;;;19.80;99.90;;;;;;5018468;28;20494;-63
2023/08/02 11:37:43;;;;;;;11.73;10.03;;;19.80;99.90;;;;;;5019486;28;20449;-60
2023/08/02 11:40:11;;;;;;;9.33;8.13;;;20.00;99.90;;;;;;5028070;28;20605;-63
2023/08/02 11:42:47;;;;;;;11.80;9.03;;;19.90;99.90;;;;;;5027110;28;20919;-63
2023/08/02 11:45:14;;;;;;;10.63;9.50;;;19.90;99.90;;;;;;5016666;28;20483;-62
2023/08/02 11:47:41;;;;;;;10.00;9.00;;;19.90;99.90;;;;;;5020889;28;20481;-64
2023/08/02 11:50:09;;;;;;;10.93;9.57;;;20.00;99.90;;;;;;5020621;28;20475;-66
2023/08/02 11:52:36;;;;;;;10.17;8.77;;;20.00;99.90;;;;;;5014825;28;20480;-61
2023/08/02 11:55:04;;;;;;;12.00;9.63;;;20.10;99.90;;;;;;5021205;28;20470;-65
2023/08/02 11:57:31;;;;;;;10.67;8.77;;;20.10;99.90;;;;;;5017425;28;20481;-63
2023/08/02 11:59:59;;;;;;;11.70;10.27;;;20.20;99.90;;;;;;5018847;28;20477;-64
2023/08/02 12:02:28;;;;;;;10.03;9.00;;;20.10;99.90;;;;;;5014586;28;20479;-65
2023/08/02 12:04:55;;;;;;;11.90;9.83;;;20.20;99.90;;;;;;5016375;28;20484;-64
2023/08/02 12:07:28;;;;;;;9.10;8.20;;;20.20;99.90;;;;;;5010856;28;20487;-63
2023/08/02 12:09:55;;;;;;;16.43;13.30;;;20.30;99.90;;;;;;5011711;28;20540;-64
2023/08/02 12:12:23;;;;;;;16.00;10.73;;;20.30;99.90;;;;;;5004648;28;20486;-63
2023/08/02 12:14:50;;;;;;;17.30;11.97;;;20.40;99.90;;;;;;5008224;28;20510;-62
2023/08/02 12:17:18;;;;;;;9.23;8.33;;;20.50;99.90;;;;;;5011431;28;20584;-67
2023/08/02 12:19:45;;;;;;;10.17;9.13;;;20.60;99.90;;;;;;5013578;28;20476;-65
2023/08/02 12:22:12;;;;;;;11.00;9.87;;;20.70;99.90;;;;;;5014453;28;20484;-67
2023/08/02 12:24:40;;;;;;;10.73;9.63;;;20.60;99.90;;;;;;5012238;28;20458;-67
2023/08/02 12:27:15;;;;;;;11.60;9.97;;;20.80;99.90;;;;;;5010989;28;20514;-66
2023/08/02 12:29:43;;;;;;;11.67;9.30;;;21.00;99.90;;;;;;5010790;28;20977;-65
2023/08/02 12:32:10;;;;;;;12.07;8.97;;;21.10;99.90;;;;;;5012501;28;20490;-61
2023/08/02 12:34:37;;;;;;;12.10;8.97;;;21.20;99.90;;;;;;5003958;28;20470;-67
2023/08/02 12:37:05;;;;;;;12.07;9.67;;;21.40;99.90;;;;;;5010965;28;20484;-64
2023/08/02 12:39:32;;;;;;;8.93;7.30;;;21.20;99.90;;;;;;5012190;28;22012;-61
2023/08/02 12:42:00;;;;;;;10.80;9.70;;;21.30;99.90;;;;;;5011950;28;20597;-63
2023/08/02 12:44:27;;;;;;;10.10;8.37;;;21.10;99.90;;;;;;5013410;28;20821;-66
2023/08/02 12:46:54;;;;;;;11.77;10.53;;;21.00;99.90;;;;;;5011374;28;20491;-65
2023/08/02 12:49:21;;;;;;;12.13;9.90;;;21.00;99.90;;;;;;5013495;28;20502;-65